sensor_id;sensor_type;location;lat;lon;timestamp;temperature;humidity
59469;DHT22;45277;52.768;18.262;2022-10-31T00:00:56;9.30;99.90
59469;DHT22;45277;52.768;18.262;2022-10-31T00:02:42;9.30;99.90
59469;DHT22;45277;52.768;18.262;2022-10-31T00:04:13;9.30;99.90
59469;DHT22;45277;52.768;18.262;2022-10-31T00:05:46;9.30;99.90
59469;DHT22;45277;52.768;18.262;2022-10-31T00:07:18;9.30;99.90
59469;DHT22;45277;52.768;18.262;2022-10-31T00:08:57;9.30;99.90
59469;DHT22;45277;52.768;18.262;2022-10-31T00:10:28;9.30;99.90
59469;DHT22;45277;52.768;18.262;2022-10-31T00:12:00;9.40;99.90
59469;DHT22;45277;52.768;18.262;2022-10-31T00:13:32;9.40;99.90
59469;DHT22;45277;52.768;18.262;2022-10-31T00:15:03;9.40;99.90
59469;DHT22;45277;52.768;18.262;2022-10-31T00:16:34;9.40;99.90
59469;DHT22;45277;52.768;18.262;2022-10-31T00:18:07;9.40;99.90
59469;DHT22;45277;52.768;18.262;2022-10-31T00:19:39;9.40;99.90
59469;DHT22;45277;52.768;18.262;2022-10-31T00:21:10;9.40;99.90
59469;DHT22;45277;52.768;18.262;2022-10-31T00:22:41;9.50;99.90
59469;DHT22;45277;52.768;18.262;2022-10-31T00:24:13;9.50;99.90
59469;DHT22;45277;52.768;18.262;2022-10-31T00:25:44;9.50;99.90
59469;DHT22;45277;52.768;18.262;2022-10-31T00:27:15;9.40;99.90
59469;DHT22;45277;52.768;18.262;2022-10-31T00:28:47;9.50;99.90
59469;DHT22;45277;52.768;18.262;2022-10-31T00:30:18;9.40;99.90
59469;DHT22;45277;52.768;18.262;2022-10-31T00:31:49;9.50;99.90
59469;DHT22;45277;52.768;18.262;2022-10-31T00:33:21;9.40;99.90
59469;DHT22;45277;52.768;18.262;2022-10-31T00:34:52;9.40;99.90
59469;DHT22;45277;52.768;18.262;2022-10-31T00:36:23;9.40;99.90
59469;DHT22;45277;52.768;18.262;2022-10-31T00:37:54;9.40;99.90
59469;DHT22;45277;52.768;18.262;2022-10-31T00:39:26;9.40;99.90
59469;DHT22;45277;52.768;18.262;2022-10-31T00:40:57;9.40;99.90
59469;DHT22;45277;52.768;18.262;2022-10-31T00:42:28;9.40;99.90
59469;DHT22;45277;52.768;18.262;2022-10-31T00:44:00;9.40;99.90
59469;DHT22;45277;52.768;18.262;2022-10-31T00:45:31;9.40;99.90
59469;DHT22;45277;52.768;18.262;2022-10-31T00:47:02;9.40;99.90
59469;DHT22;45277;52.768;18.262;2022-10-31T00:48:33;9.40;99.90
59469;DHT22;45277;52.768;18.262;2022-10-31T00:50:05;9.40;99.90
59469;DHT22;45277;52.768;18.262;2022-10-31T00:51:37;9.30;99.90
59469;DHT22;45277;52.768;18.262;2022-10-31T00:53:08;9.30;99.90
59469;DHT22;45277;52.768;18.262;2022-10-31T00:54:39;9.30;99.90
59469;DHT22;45277;52.768;18.262;2022-10-31T00:56:11;9.30;99.90
59469;DHT22;45277;52.768;18.262;2022-10-31T00:57:42;9.20;99.90
59469;DHT22;45277;52.768;18.262;2022-10-31T00:59:13;9.20;99.90
59469;DHT22;45277;52.768;18.262;2022-10-31T01:00:47;9.20;99.90
59469;DHT22;45277;52.768;18.262;2022-10-31T01:02:26;9.20;99.90
59469;DHT22;45277;52.768;18.262;2022-10-31T01:03:58;9.20;99.90
59469;DHT22;45277;52.768;18.262;2022-10-31T01:05:29;9.20;99.90
59469;DHT22;45277;52.768;18.262;2022-10-31T01:07:00;9.20;99.90
59469;DHT22;45277;52.768;18.262;2022-10-31T01:08:31;9.20;99.90
59469;DHT22;45277;52.768;18.262;2022-10-31T01:10:05;9.20;99.90
59469;DHT22;45277;52.768;18.262;2022-10-31T01:11:36;9.20;99.90
59469;DHT22;45277;52.768;18.262;2022-10-31T01:13:07;9.20;99.90
59469;DHT22;45277;52.768;18.262;2022-10-31T01:14:43;9.30;99.90
59469;DHT22;45277;52.768;18.262;2022-10-31T01:16:17;9.30;99.90
59469;DHT22;45277;52.768;18.262;2022-10-31T01:17:49;9.30;99.90
59469;DHT22;45277;52.768;18.262;2022-10-31T01:19:20;9.20;99.90
59469;DHT22;45277;52.768;18.262;2022-10-31T01:21:06;9.30;99.90
59469;DHT22;45277;52.768;18.262;2022-10-31T01:22:38;9.30;99.90
59469;DHT22;45277;52.768;18.262;2022-10-31T01:24:09;9.30;99.90
59469;DHT22;45277;52.768;18.262;2022-10-31T01:25:40;9.30;99.90
59469;DHT22;45277;52.768;18.262;2022-10-31T01:27:13;9.30;99.90
59469;DHT22;45277;52.768;18.262;2022-10-31T01:28:50;9.30;99.90
59469;DHT22;45277;52.768;18.262;2022-10-31T01:30:22;9.30;99.90
59469;DHT22;45277;52.768;18.262;2022-10-31T01:31:53;9.30;99.90
59469;DHT22;45277;52.768;18.262;2022-10-31T01:33:24;9.30;99.90
59469;DHT22;45277;52.768;18.262;2022-10-31T01:34:55;9.30;99.90
59469;DHT22;45277;52.768;18.262;2022-10-31T01:36:29;9.40;99.90
59469;DHT22;45277;52.768;18.262;2022-10-31T01:38:01;9.40;99.90
59469;DHT22;45277;52.768;18.262;2022-10-31T01:39:32;9.40;99.90
59469;DHT22;45277;52.768;18.262;2022-10-31T01:41:04;9.40;99.90
59469;DHT22;45277;52.768;18.262;2022-10-31T01:42:35;9.40;99.90
59469;DHT22;45277;52.768;18.262;2022-10-31T01:45:50;9.40;99.90
59469;DHT22;45277;52.768;18.262;2022-10-31T01:47:44;9.30;99.90
59469;DHT22;45277;52.768;18.262;2022-10-31T01:49:35;9.40;99.90
59469;DHT22;45277;52.768;18.262;2022-10-31T01:51:09;9.40;99.90
59469;DHT22;45277;52.768;18.262;2022-10-31T01:52:44;9.40;99.90
59469;DHT22;45277;52.768;18.262;2022-10-31T01:54:20;9.40;99.90
59469;DHT22;45277;52.768;18.262;2022-10-31T01:55:52;9.40;99.90
59469;DHT22;45277;52.768;18.262;2022-10-31T01:57:24;9.40;99.90
59469;DHT22;45277;52.768;18.262;2022-10-31T01:58:56;9.40;99.90
59469;DHT22;45277;52.768;18.262;2022-10-31T02:00:30;9.40;99.90
59469;DHT22;45277;52.768;18.262;2022-10-31T02:02:01;9.40;99.90
59469;DHT22;45277;52.768;18.262;2022-10-31T02:03:33;9.40;99.90
59469;DHT22;45277;52.768;18.262;2022-10-31T02:05:07;9.40;99.90
59469;DHT22;45277;52.768;18.262;2022-10-31T02:08:28;9.50;99.90
59469;DHT22;45277;52.768;18.262;2022-10-31T02:10:01;9.40;99.90
59469;DHT22;45277;52.768;18.262;2022-10-31T02:11:35;9.50;99.90
59469;DHT22;45277;52.768;18.262;2022-10-31T02:13:08;9.50;99.90
59469;DHT22;45277;52.768;18.262;2022-10-31T02:14:39;9.50;99.90
59469;DHT22;45277;52.768;18.262;2022-10-31T02:16:11;9.50;99.90
59469;DHT22;45277;52.768;18.262;2022-10-31T02:17:42;9.50;99.90
59469;DHT22;45277;52.768;18.262;2022-10-31T02:19:18;9.50;99.90
59469;DHT22;45277;52.768;18.262;2022-10-31T02:25:02;9.50;99.90
59469;DHT22;45277;52.768;18.262;2022-10-31T02:27:09;9.40;99.90
59469;DHT22;45277;52.768;18.262;2022-10-31T02:34:44;9.50;99.90
59469;DHT22;45277;52.768;18.262;2022-10-31T02:38:52;9.50;99.90
59469;DHT22;45277;52.768;18.262;2022-10-31T02:43:53;9.50;99.90
59469;DHT22;45277;52.768;18.262;2022-10-31T02:47:11;9.60;99.90
59469;DHT22;45277;52.768;18.262;2022-10-31T02:48:44;9.60;99.90
59469;DHT22;45277;52.768;18.262;2022-10-31T02:50:23;9.60;99.90
59469;DHT22;45277;52.768;18.262;2022-10-31T02:51:55;9.60;99.90
59469;DHT22;45277;52.768;18.262;2022-10-31T02:53:32;9.60;99.90
59469;DHT22;45277;52.768;18.262;2022-10-31T02:57:04;9.60;99.90
59469;DHT22;45277;52.768;18.262;2022-10-31T02:58:43;9.60;99.90
59469;DHT22;45277;52.768;18.262;2022-10-31T03:00:16;9.60;99.90
59469;DHT22;45277;52.768;18.262;2022-10-31T03:02:14;9.60;99.90
59469;DHT22;45277;52.768;18.262;2022-10-31T03:04:26;9.60;99.90
59469;DHT22;45277;52.768;18.262;2022-10-31T03:06:04;9.60;99.90
59469;DHT22;45277;52.768;18.262;2022-10-31T03:11:13;9.70;99.90
59469;DHT22;45277;52.768;18.262;2022-10-31T03:13:01;9.70;99.90
59469;DHT22;45277;52.768;18.262;2022-10-31T03:16:46;9.70;99.90
59469;DHT22;45277;52.768;18.262;2022-10-31T03:18:32;9.80;99.90
59469;DHT22;45277;52.768;18.262;2022-10-31T03:20:06;9.80;99.90
59469;DHT22;45277;52.768;18.262;2022-10-31T03:21:42;9.90;99.90
59469;DHT22;45277;52.768;18.262;2022-10-31T03:23:17;9.80;99.90
59469;DHT22;45277;52.768;18.262;2022-10-31T03:24:50;9.80;99.90
59469;DHT22;45277;52.768;18.262;2022-10-31T03:26:23;9.80;99.90
59469;DHT22;45277;52.768;18.262;2022-10-31T03:27:55;9.80;99.90
59469;DHT22;45277;52.768;18.262;2022-10-31T03:29:30;9.70;99.90
59469;DHT22;45277;52.768;18.262;2022-10-31T03:31:05;9.70;99.90
59469;DHT22;45277;52.768;18.262;2022-10-31T03:32:48;9.70;99.90
59469;DHT22;45277;52.768;18.262;2022-10-31T03:34:20;9.70;99.90
59469;DHT22;45277;52.768;18.262;2022-10-31T03:35:52;9.70;99.90
59469;DHT22;45277;52.768;18.262;2022-10-31T03:37:27;9.70;99.90
59469;DHT22;45277;52.768;18.262;2022-10-31T03:39:02;9.70;99.90
59469;DHT22;45277;52.768;18.262;2022-10-31T03:40:36;9.70;99.90
59469;DHT22;45277;52.768;18.262;2022-10-31T03:42:14;9.70;99.90
59469;DHT22;45277;52.768;18.262;2022-10-31T03:44:12;9.60;99.90
59469;DHT22;45277;52.768;18.262;2022-10-31T03:45:46;9.70;99.90
59469;DHT22;45277;52.768;18.262;2022-10-31T03:47:18;9.60;99.90
59469;DHT22;45277;52.768;18.262;2022-10-31T03:48:49;9.50;99.90
59469;DHT22;45277;52.768;18.262;2022-10-31T03:50:21;9.50;99.90
59469;DHT22;45277;52.768;18.262;2022-10-31T03:52:25;9.40;99.90
59469;DHT22;45277;52.768;18.262;2022-10-31T03:54:11;9.50;99.90
59469;DHT22;45277;52.768;18.262;2022-10-31T03:55:54;9.40;99.90
59469;DHT22;45277;52.768;18.262;2022-10-31T03:57:41;9.40;99.90
59469;DHT22;45277;52.768;18.262;2022-10-31T03:59:33;9.50;99.90
59469;DHT22;45277;52.768;18.262;2022-10-31T04:01:07;9.40;99.90
59469;DHT22;45277;52.768;18.262;2022-10-31T04:04:32;9.50;99.90
59469;DHT22;45277;52.768;18.262;2022-10-31T04:06:07;9.40;99.90
59469;DHT22;45277;52.768;18.262;2022-10-31T04:07:45;9.40;99.90
59469;DHT22;45277;52.768;18.262;2022-10-31T04:09:19;9.40;99.90
59469;DHT22;45277;52.768;18.262;2022-10-31T04:10:51;9.50;99.90
59469;DHT22;45277;52.768;18.262;2022-10-31T04:12:24;9.50;99.90
59469;DHT22;45277;52.768;18.262;2022-10-31T04:13:57;9.50;99.90
59469;DHT22;45277;52.768;18.262;2022-10-31T04:15:31;9.50;99.90
59469;DHT22;45277;52.768;18.262;2022-10-31T04:17:07;9.50;99.90
59469;DHT22;45277;52.768;18.262;2022-10-31T04:18:40;9.50;99.90
59469;DHT22;45277;52.768;18.262;2022-10-31T04:20:15;9.50;99.90
59469;DHT22;45277;52.768;18.262;2022-10-31T04:21:47;9.50;99.90
59469;DHT22;45277;52.768;18.262;2022-10-31T04:23:24;9.60;99.90
59469;DHT22;45277;52.768;18.262;2022-10-31T04:24:55;9.60;99.90
59469;DHT22;45277;52.768;18.262;2022-10-31T04:26:27;9.60;99.90
59469;DHT22;45277;52.768;18.262;2022-10-31T04:27:58;9.60;99.90
59469;DHT22;45277;52.768;18.262;2022-10-31T04:29:29;9.60;99.90
59469;DHT22;45277;52.768;18.262;2022-10-31T04:31:00;9.60;99.90
59469;DHT22;45277;52.768;18.262;2022-10-31T04:32:32;9.60;99.90
59469;DHT22;45277;52.768;18.262;2022-10-31T04:34:03;9.70;99.90
59469;DHT22;45277;52.768;18.262;2022-10-31T04:35:34;9.70;99.90
59469;DHT22;45277;52.768;18.262;2022-10-31T04:37:05;9.70;99.90
59469;DHT22;45277;52.768;18.262;2022-10-31T04:38:37;9.70;99.90
59469;DHT22;45277;52.768;18.262;2022-10-31T04:40:08;9.70;99.90
59469;DHT22;45277;52.768;18.262;2022-10-31T04:41:40;9.60;99.90
59469;DHT22;45277;52.768;18.262;2022-10-31T04:43:11;9.60;99.90
59469;DHT22;45277;52.768;18.262;2022-10-31T04:44:42;9.60;99.90
59469;DHT22;45277;52.768;18.262;2022-10-31T04:46:14;9.60;99.90
59469;DHT22;45277;52.768;18.262;2022-10-31T04:47:45;9.60;99.90
59469;DHT22;45277;52.768;18.262;2022-10-31T04:49:16;9.60;99.90
59469;DHT22;45277;52.768;18.262;2022-10-31T04:50:48;9.60;99.90
59469;DHT22;45277;52.768;18.262;2022-10-31T04:52:19;9.60;99.90
59469;DHT22;45277;52.768;18.262;2022-10-31T04:53:50;9.60;99.90
59469;DHT22;45277;52.768;18.262;2022-10-31T04:55:21;9.60;99.90
59469;DHT22;45277;52.768;18.262;2022-10-31T04:56:53;9.50;99.90
59469;DHT22;45277;52.768;18.262;2022-10-31T04:58:24;9.50;99.90
59469;DHT22;45277;52.768;18.262;2022-10-31T04:59:55;9.50;99.90
59469;DHT22;45277;52.768;18.262;2022-10-31T05:01:26;9.50;99.90
59469;DHT22;45277;52.768;18.262;2022-10-31T05:02:59;9.50;99.90
59469;DHT22;45277;52.768;18.262;2022-10-31T05:04:30;9.50;99.90
59469;DHT22;45277;52.768;18.262;2022-10-31T05:06:01;9.50;99.90
59469;DHT22;45277;52.768;18.262;2022-10-31T05:07:32;9.50;99.90
59469;DHT22;45277;52.768;18.262;2022-10-31T05:09:04;9.50;99.90
59469;DHT22;45277;52.768;18.262;2022-10-31T05:10:35;9.50;99.90
59469;DHT22;45277;52.768;18.262;2022-10-31T05:12:06;9.50;99.90
59469;DHT22;45277;52.768;18.262;2022-10-31T05:13:37;9.50;99.90
59469;DHT22;45277;52.768;18.262;2022-10-31T05:15:09;9.50;99.90
59469;DHT22;45277;52.768;18.262;2022-10-31T05:16:40;9.50;99.90
59469;DHT22;45277;52.768;18.262;2022-10-31T05:18:11;9.50;99.90
59469;DHT22;45277;52.768;18.262;2022-10-31T05:19:42;9.40;99.90
59469;DHT22;45277;52.768;18.262;2022-10-31T05:21:14;9.40;99.90
59469;DHT22;45277;52.768;18.262;2022-10-31T05:22:47;9.50;99.90
59469;DHT22;45277;52.768;18.262;2022-10-31T05:24:18;9.50;99.90
59469;DHT22;45277;52.768;18.262;2022-10-31T05:25:52;9.50;99.90
59469;DHT22;45277;52.768;18.262;2022-10-31T05:27:24;9.50;99.90
59469;DHT22;45277;52.768;18.262;2022-10-31T05:28:55;9.50;99.90
59469;DHT22;45277;52.768;18.262;2022-10-31T05:30:29;9.50;99.90
59469;DHT22;45277;52.768;18.262;2022-10-31T05:32:01;9.50;99.90
59469;DHT22;45277;52.768;18.262;2022-10-31T05:33:33;9.50;99.90
59469;DHT22;45277;52.768;18.262;2022-10-31T05:35:04;9.50;99.90
59469;DHT22;45277;52.768;18.262;2022-10-31T05:36:36;9.50;99.90
59469;DHT22;45277;52.768;18.262;2022-10-31T05:38:07;9.50;99.90
59469;DHT22;45277;52.768;18.262;2022-10-31T05:39:38;9.50;99.90
59469;DHT22;45277;52.768;18.262;2022-10-31T05:41:10;9.50;99.90
59469;DHT22;45277;52.768;18.262;2022-10-31T05:42:42;9.60;99.90
59469;DHT22;45277;52.768;18.262;2022-10-31T05:44:14;9.60;99.90
59469;DHT22;45277;52.768;18.262;2022-10-31T05:45:45;9.50;99.90
59469;DHT22;45277;52.768;18.262;2022-10-31T05:47:16;9.50;99.90
59469;DHT22;45277;52.768;18.262;2022-10-31T05:48:47;9.60;99.90
59469;DHT22;45277;52.768;18.262;2022-10-31T05:50:19;9.50;99.90
59469;DHT22;45277;52.768;18.262;2022-10-31T05:51:51;9.60;99.90
59469;DHT22;45277;52.768;18.262;2022-10-31T05:53:22;9.60;99.90
59469;DHT22;45277;52.768;18.262;2022-10-31T05:54:54;9.60;99.90
59469;DHT22;45277;52.768;18.262;2022-10-31T05:56:25;9.60;99.90
59469;DHT22;45277;52.768;18.262;2022-10-31T05:57:57;9.60;99.90
59469;DHT22;45277;52.768;18.262;2022-10-31T05:59:28;9.60;99.90
59469;DHT22;45277;52.768;18.262;2022-10-31T06:01:00;9.60;99.90
59469;DHT22;45277;52.768;18.262;2022-10-31T06:02:31;9.70;99.90
59469;DHT22;45277;52.768;18.262;2022-10-31T06:04:05;9.70;99.90
59469;DHT22;45277;52.768;18.262;2022-10-31T06:05:36;9.60;99.90
59469;DHT22;45277;52.768;18.262;2022-10-31T06:07:08;9.60;99.90
59469;DHT22;45277;52.768;18.262;2022-10-31T06:08:40;9.60;99.90
59469;DHT22;45277;52.768;18.262;2022-10-31T06:10:11;9.70;99.90
59469;DHT22;45277;52.768;18.262;2022-10-31T06:11:43;9.70;99.90
59469;DHT22;45277;52.768;18.262;2022-10-31T06:13:14;9.70;99.90
59469;DHT22;45277;52.768;18.262;2022-10-31T06:14:45;9.70;99.90
59469;DHT22;45277;52.768;18.262;2022-10-31T06:16:16;9.70;99.90
59469;DHT22;45277;52.768;18.262;2022-10-31T06:18:05;9.70;99.90
59469;DHT22;45277;52.768;18.262;2022-10-31T06:19:36;9.80;99.90
59469;DHT22;45277;52.768;18.262;2022-10-31T06:21:08;9.80;99.90
59469;DHT22;45277;52.768;18.262;2022-10-31T06:22:40;9.80;99.90
59469;DHT22;45277;52.768;18.262;2022-10-31T06:24:11;9.80;99.90
59469;DHT22;45277;52.768;18.262;2022-10-31T06:25:42;9.70;99.90
59469;DHT22;45277;52.768;18.262;2022-10-31T06:27:13;9.70;99.90
59469;DHT22;45277;52.768;18.262;2022-10-31T06:28:45;9.70;99.90
59469;DHT22;45277;52.768;18.262;2022-10-31T06:30:16;9.70;99.90
59469;DHT22;45277;52.768;18.262;2022-10-31T06:31:50;9.80;99.90
59469;DHT22;45277;52.768;18.262;2022-10-31T06:33:22;9.70;99.90
59469;DHT22;45277;52.768;18.262;2022-10-31T06:34:53;9.80;99.90
59469;DHT22;45277;52.768;18.262;2022-10-31T06:36:24;9.90;99.90
59469;DHT22;45277;52.768;18.262;2022-10-31T06:37:57;9.90;99.90
59469;DHT22;45277;52.768;18.262;2022-10-31T06:39:28;9.90;99.90
59469;DHT22;45277;52.768;18.262;2022-10-31T06:41:06;9.90;99.90
59469;DHT22;45277;52.768;18.262;2022-10-31T06:42:37;9.90;99.90
59469;DHT22;45277;52.768;18.262;2022-10-31T06:44:09;9.90;99.90
59469;DHT22;45277;52.768;18.262;2022-10-31T06:45:40;10.00;99.90
59469;DHT22;45277;52.768;18.262;2022-10-31T06:47:12;10.00;99.90
59469;DHT22;45277;52.768;18.262;2022-10-31T06:48:43;9.90;99.90
59469;DHT22;45277;52.768;18.262;2022-10-31T06:50:15;10.00;99.90
59469;DHT22;45277;52.768;18.262;2022-10-31T06:51:49;10.00;99.90
59469;DHT22;45277;52.768;18.262;2022-10-31T06:53:21;9.90;99.90
59469;DHT22;45277;52.768;18.262;2022-10-31T06:54:52;9.90;99.90
59469;DHT22;45277;52.768;18.262;2022-10-31T06:56:24;9.90;99.90
59469;DHT22;45277;52.768;18.262;2022-10-31T06:57:57;10.00;99.90
59469;DHT22;45277;52.768;18.262;2022-10-31T06:59:29;10.00;99.90
59469;DHT22;45277;52.768;18.262;2022-10-31T07:01:00;10.00;99.90
59469;DHT22;45277;52.768;18.262;2022-10-31T07:02:32;10.00;99.90
59469;DHT22;45277;52.768;18.262;2022-10-31T07:04:04;10.00;99.90
59469;DHT22;45277;52.768;18.262;2022-10-31T07:05:35;10.10;99.90
59469;DHT22;45277;52.768;18.262;2022-10-31T07:07:06;10.00;99.90
59469;DHT22;45277;52.768;18.262;2022-10-31T07:08:37;9.90;99.90
59469;DHT22;45277;52.768;18.262;2022-10-31T07:10:09;10.00;99.90
59469;DHT22;45277;52.768;18.262;2022-10-31T07:11:40;10.00;99.90
59469;DHT22;45277;52.768;18.262;2022-10-31T07:13:13;10.00;99.90
59469;DHT22;45277;52.768;18.262;2022-10-31T07:14:45;10.00;99.90
59469;DHT22;45277;52.768;18.262;2022-10-31T07:16:16;10.00;99.90
59469;DHT22;45277;52.768;18.262;2022-10-31T07:17:47;10.00;99.90
59469;DHT22;45277;52.768;18.262;2022-10-31T07:19:19;10.00;99.90
59469;DHT22;45277;52.768;18.262;2022-10-31T07:20:51;10.00;99.90
59469;DHT22;45277;52.768;18.262;2022-10-31T07:22:23;10.00;99.90
59469;DHT22;45277;52.768;18.262;2022-10-31T07:23:54;10.00;99.90
59469;DHT22;45277;52.768;18.262;2022-10-31T07:25:26;10.00;99.90
59469;DHT22;45277;52.768;18.262;2022-10-31T07:26:57;10.10;99.90
59469;DHT22;45277;52.768;18.262;2022-10-31T07:28:29;10.10;99.90
59469;DHT22;45277;52.768;18.262;2022-10-31T07:30:00;10.10;99.90
59469;DHT22;45277;52.768;18.262;2022-10-31T07:31:32;10.10;99.90
59469;DHT22;45277;52.768;18.262;2022-10-31T07:33:03;10.00;99.90
59469;DHT22;45277;52.768;18.262;2022-10-31T07:34:34;10.10;99.90
59469;DHT22;45277;52.768;18.262;2022-10-31T07:36:06;10.10;99.90
59469;DHT22;45277;52.768;18.262;2022-10-31T07:37:38;10.20;99.90
59469;DHT22;45277;52.768;18.262;2022-10-31T07:39:10;10.20;99.90
59469;DHT22;45277;52.768;18.262;2022-10-31T07:40:42;10.20;99.90
59469;DHT22;45277;52.768;18.262;2022-10-31T07:42:13;10.40;99.90
59469;DHT22;45277;52.768;18.262;2022-10-31T07:43:45;10.40;99.90
59469;DHT22;45277;52.768;18.262;2022-10-31T07:45:18;10.40;99.90
59469;DHT22;45277;52.768;18.262;2022-10-31T07:46:50;10.50;99.90
59469;DHT22;45277;52.768;18.262;2022-10-31T07:48:21;10.50;99.90
59469;DHT22;45277;52.768;18.262;2022-10-31T07:49:53;10.40;99.90
59469;DHT22;45277;52.768;18.262;2022-10-31T07:51:24;10.40;99.90
59469;DHT22;45277;52.768;18.262;2022-10-31T07:53:09;10.50;99.90
59469;DHT22;45277;52.768;18.262;2022-10-31T07:54:40;10.60;99.90
59469;DHT22;45277;52.768;18.262;2022-10-31T07:56:12;10.60;99.90
59469;DHT22;45277;52.768;18.262;2022-10-31T07:57:43;10.70;99.90
59469;DHT22;45277;52.768;18.262;2022-10-31T07:59:14;10.80;99.90
59469;DHT22;45277;52.768;18.262;2022-10-31T08:00:47;10.90;99.90
59469;DHT22;45277;52.768;18.262;2022-10-31T08:02:18;10.90;99.90
59469;DHT22;45277;52.768;18.262;2022-10-31T08:03:49;11.00;99.90
59469;DHT22;45277;52.768;18.262;2022-10-31T08:05:21;10.90;99.90
59469;DHT22;45277;52.768;18.262;2022-10-31T08:06:52;11.00;99.90
59469;DHT22;45277;52.768;18.262;2022-10-31T08:08:23;10.90;99.90
59469;DHT22;45277;52.768;18.262;2022-10-31T08:09:55;10.80;99.90
59469;DHT22;45277;52.768;18.262;2022-10-31T08:11:27;10.80;99.90
59469;DHT22;45277;52.768;18.262;2022-10-31T08:13:07;10.90;99.90
59469;DHT22;45277;52.768;18.262;2022-10-31T08:14:39;10.80;99.90
59469;DHT22;45277;52.768;18.262;2022-10-31T08:16:10;10.90;99.90
59469;DHT22;45277;52.768;18.262;2022-10-31T08:17:41;10.80;99.90
59469;DHT22;45277;52.768;18.262;2022-10-31T08:19:13;10.80;99.90
59469;DHT22;45277;52.768;18.262;2022-10-31T08:20:44;10.90;99.90
59469;DHT22;45277;52.768;18.262;2022-10-31T08:22:16;11.00;99.90
59469;DHT22;45277;52.768;18.262;2022-10-31T08:23:47;11.10;99.90
59469;DHT22;45277;52.768;18.262;2022-10-31T08:25:18;11.10;99.90
59469;DHT22;45277;52.768;18.262;2022-10-31T08:26:50;11.10;99.90
59469;DHT22;45277;52.768;18.262;2022-10-31T08:28:21;11.20;99.90
59469;DHT22;45277;52.768;18.262;2022-10-31T08:29:52;11.10;99.90
59469;DHT22;45277;52.768;18.262;2022-10-31T08:31:23;11.20;99.90
59469;DHT22;45277;52.768;18.262;2022-10-31T08:33:03;11.20;99.90
59469;DHT22;45277;52.768;18.262;2022-10-31T08:34:35;11.40;99.90
59469;DHT22;45277;52.768;18.262;2022-10-31T08:36:06;11.30;99.90
59469;DHT22;45277;52.768;18.262;2022-10-31T08:37:38;11.30;99.90
59469;DHT22;45277;52.768;18.262;2022-10-31T08:39:10;11.30;99.90
59469;DHT22;45277;52.768;18.262;2022-10-31T08:40:41;11.20;99.90
59469;DHT22;45277;52.768;18.262;2022-10-31T08:42:13;11.30;99.90
59469;DHT22;45277;52.768;18.262;2022-10-31T08:43:44;11.40;99.90
59469;DHT22;45277;52.768;18.262;2022-10-31T08:45:16;11.50;99.90
59469;DHT22;45277;52.768;18.262;2022-10-31T08:46:47;11.50;99.90
59469;DHT22;45277;52.768;18.262;2022-10-31T08:48:18;11.50;99.90
59469;DHT22;45277;52.768;18.262;2022-10-31T08:49:50;11.60;99.90
59469;DHT22;45277;52.768;18.262;2022-10-31T08:51:21;11.60;99.90
59469;DHT22;45277;52.768;18.262;2022-10-31T08:52:52;11.50;99.90
59469;DHT22;45277;52.768;18.262;2022-10-31T08:54:24;11.70;99.90
59469;DHT22;45277;52.768;18.262;2022-10-31T08:55:56;11.60;99.90
59469;DHT22;45277;52.768;18.262;2022-10-31T08:57:27;11.80;99.90
59469;DHT22;45277;52.768;18.262;2022-10-31T08:58:58;11.70;99.90
59469;DHT22;45277;52.768;18.262;2022-10-31T09:00:30;11.60;99.90
59469;DHT22;45277;52.768;18.262;2022-10-31T09:02:02;11.80;99.90
59469;DHT22;45277;52.768;18.262;2022-10-31T09:03:33;11.80;99.90
59469;DHT22;45277;52.768;18.262;2022-10-31T09:05:04;11.70;99.90
59469;DHT22;45277;52.768;18.262;2022-10-31T09:06:36;11.70;99.90
59469;DHT22;45277;52.768;18.262;2022-10-31T09:08:08;11.80;99.90
59469;DHT22;45277;52.768;18.262;2022-10-31T09:09:39;11.80;99.90
59469;DHT22;45277;52.768;18.262;2022-10-31T09:11:10;11.80;99.90
59469;DHT22;45277;52.768;18.262;2022-10-31T09:12:41;11.80;99.90
59469;DHT22;45277;52.768;18.262;2022-10-31T09:14:13;11.90;99.90
59469;DHT22;45277;52.768;18.262;2022-10-31T09:15:46;11.80;99.90
59469;DHT22;45277;52.768;18.262;2022-10-31T09:17:17;11.80;99.90
59469;DHT22;45277;52.768;18.262;2022-10-31T09:18:48;11.90;99.90
59469;DHT22;45277;52.768;18.262;2022-10-31T09:20:21;12.00;99.90
59469;DHT22;45277;52.768;18.262;2022-10-31T09:21:53;12.00;99.90
59469;DHT22;45277;52.768;18.262;2022-10-31T09:23:25;12.10;99.90
59469;DHT22;45277;52.768;18.262;2022-10-31T09:24:56;12.20;99.90
59469;DHT22;45277;52.768;18.262;2022-10-31T09:26:28;12.30;99.90
59469;DHT22;45277;52.768;18.262;2022-10-31T09:28:00;12.30;99.90
59469;DHT22;45277;52.768;18.262;2022-10-31T09:29:32;12.40;99.90
59469;DHT22;45277;52.768;18.262;2022-10-31T09:31:03;12.40;99.90
59469;DHT22;45277;52.768;18.262;2022-10-31T09:32:35;12.40;99.90
59469;DHT22;45277;52.768;18.262;2022-10-31T09:34:06;12.50;99.90
59469;DHT22;45277;52.768;18.262;2022-10-31T09:35:37;12.50;99.90
59469;DHT22;45277;52.768;18.262;2022-10-31T09:37:09;12.50;99.90
59469;DHT22;45277;52.768;18.262;2022-10-31T09:38:40;12.50;99.90
59469;DHT22;45277;52.768;18.262;2022-10-31T09:40:11;12.50;99.90
59469;DHT22;45277;52.768;18.262;2022-10-31T09:42:09;12.50;99.90
59469;DHT22;45277;52.768;18.262;2022-10-31T09:43:58;12.40;99.90
59469;DHT22;45277;52.768;18.262;2022-10-31T09:45:42;12.50;99.90
59469;DHT22;45277;52.768;18.262;2022-10-31T09:49:48;12.70;99.90
59469;DHT22;45277;52.768;18.262;2022-10-31T09:51:32;12.90;99.90
59469;DHT22;45277;52.768;18.262;2022-10-31T09:53:34;13.00;99.90
59469;DHT22;45277;52.768;18.262;2022-10-31T09:55:19;12.70;99.90
59469;DHT22;45277;52.768;18.262;2022-10-31T09:56:51;12.50;99.90
59469;DHT22;45277;52.768;18.262;2022-10-31T09:58:25;12.60;99.90
59469;DHT22;45277;52.768;18.262;2022-10-31T09:59:59;12.70;99.90
59469;DHT22;45277;52.768;18.262;2022-10-31T10:05:04;12.60;99.90
59469;DHT22;45277;52.768;18.262;2022-10-31T10:06:41;12.60;99.90
59469;DHT22;45277;52.768;18.262;2022-10-31T10:08:19;12.50;99.90
59469;DHT22;45277;52.768;18.262;2022-10-31T10:09:51;12.60;99.90
59469;DHT22;45277;52.768;18.262;2022-10-31T10:17:12;13.00;99.90
59469;DHT22;45277;52.768;18.262;2022-10-31T10:21:06;13.00;99.90
59469;DHT22;45277;52.768;18.262;2022-10-31T10:26:41;12.80;99.90
59469;DHT22;45277;52.768;18.262;2022-10-31T10:28:48;12.90;99.90
59469;DHT22;45277;52.768;18.262;2022-10-31T10:30:41;12.90;99.90
59469;DHT22;45277;52.768;18.262;2022-10-31T10:32:53;12.80;99.90
59469;DHT22;45277;52.768;18.262;2022-10-31T10:34:45;12.90;99.90
59469;DHT22;45277;52.768;18.262;2022-10-31T10:36:25;12.90;99.90
59469;DHT22;45277;52.768;18.262;2022-10-31T10:38:31;12.90;99.90